Time;durP1;ratioP1;P1;durP2;ratioP2;P2;SDS_P1;SDS_P2;PMS_P1;PMS_P2;Temp;Humidity;BMP_temperature;BMP_pressure;BME280_temperature;BME280_humidity;BME280_pressure;Samples;Min_cycle;Max_cycle;Signal;HPM_P1;HPM_P2
2022/11/11 00:00:26;;;;;;;12.70;5.80;;;;;;;;;;5114984;28;20026;-61
2022/11/11 00:02:54;;;;;;;6.15;3.28;;;;;;;;;;5114758;28;20028;-61
2022/11/11 00:05:20;;;;;;;6.97;3.72;;;;;;;;;;5114718;28;20473;-61
2022/11/11 00:07:47;;;;;;;8.88;3.85;;;;;;;;;;5114855;28;20022;-61
2022/11/11 00:10:13;;;;;;;5.30;3.30;;;;;;;;;;5114179;28;20050;-61
2022/11/11 00:12:39;;;;;;;6.03;3.50;;;;;;;;;;5114499;28;20026;-61
2022/11/11 00:15:06;;;;;;;5.70;3.10;;;;;;;;;;5114406;28;20030;-61
2022/11/11 00:25:52;;;;;;;10.07;3.53;;;;;;;;;;5113971;28;20023;-61
2022/11/11 00:28:18;;;;;;;8.57;3.40;;;;;;;;;;5114318;28;20076;-61
2022/11/11 00:30:45;;;;;;;8.35;3.20;;;;;;;;;;5114198;28;20042;-61
2022/11/11 00:33:11;;;;;;;6.18;3.13;;;;;;;;;;5113965;28;20049;-61
2022/11/11 00:35:53;;;;;;;14.07;4.18;;;;;;;;;;5114053;28;20030;-61
2022/11/11 00:41:04;;;;;;;10.32;3.45;;;;;;;;;;5113742;28;20024;-61
2022/11/11 00:43:30;;;;;;;9.73;3.15;;;;;;;;;;5113840;28;20016;-61
2022/11/11 00:50:57;;;;;;;6.25;3.33;;;;;;;;;;5097714;28;20088;-61
2022/11/11 00:51:28;;;;;;;9.55;3.72;;;;;;;;;;5093001;28;20028;-61
2022/11/11 00:53:54;;;;;;;8.13;3.70;;;;;;;;;;5093012;28;20028;-61
2022/11/11 00:56:22;;;;;;;6.03;3.33;;;;;;;;;;5093505;28;20088;-61
2022/11/11 00:58:49;;;;;;;8.55;3.83;;;;;;;;;;5093149;28;20514;-61
2022/11/11 01:01:16;;;;;;;7.30;3.83;;;;;;;;;;5093320;28;20028;-61
2022/11/11 01:03:42;;;;;;;15.88;5.25;;;;;;;;;;5093047;28;20016;-61
2022/11/11 01:06:09;;;;;;;7.13;3.92;;;;;;;;;;5093178;28;20396;-61
2022/11/11 01:08:35;;;;;;;8.82;3.67;;;;;;;;;;5092624;28;20020;-61
2022/11/11 01:11:02;;;;;;;16.77;5.75;;;;;;;;;;5092707;28;20382;-61
2022/11/11 01:13:29;;;;;;;10.82;4.70;;;;;;;;;;5092928;28;20069;-61
2022/11/11 01:16:03;;;;;;;10.18;4.10;;;;;;;;;;5092944;28;20102;-61
2022/11/11 01:18:29;;;;;;;7.65;3.80;;;;;;;;;;5092636;28;20493;-61
2022/11/11 01:21:10;;;;;;;20.77;6.82;;;;;;;;;;5092608;28;20020;-61
2022/11/11 01:23:37;;;;;;;31.48;10.93;;;;;;;;;;5092806;28;20019;-61
2022/11/11 01:26:16;;;;;;;21.73;8.20;;;;;;;;;;5092839;28;20489;-61
2022/11/11 01:28:42;;;;;;;17.45;6.90;;;;;;;;;;5092939;28;20032;-61
2022/11/11 01:31:10;;;;;;;15.63;6.45;;;;;;;;;;5092531;28;20039;-61
2022/11/11 01:33:36;;;;;;;15.35;5.78;;;;;;;;;;5091273;28;20024;-61
2022/11/11 01:36:10;;;;;;;20.30;7.15;;;;;;;;;;5091942;28;20043;-61
2022/11/11 01:38:37;;;;;;;38.08;12.57;;;;;;;;;;5092511;28;20024;-61
2022/11/11 01:41:31;;;;;;;59.63;16.85;;;;;;;;;;5092483;28;20085;-61
2022/11/11 01:43:51;;;;;;;17.30;6.78;;;;;;;;;;5092258;28;20040;-61
2022/11/11 01:46:37;;;;;;;9.30;5.00;;;;;;;;;;5109616;28;20542;-61
2022/11/11 01:49:19;;;;;;;16.33;8.18;;;;;;;;;;5098756;28;20039;-61
2022/11/11 01:51:47;;;;;;;10.57;5.05;;;;;;;;;;5112197;28;20031;-61
2022/11/11 01:54:21;;;;;;;7.00;3.75;;;;;;;;;;5112494;28;20480;-60
2022/11/11 01:56:49;;;;;;;5.65;3.50;;;;;;;;;;5112586;28;20506;-61
2022/11/11 01:59:16;;;;;;;5.55;3.33;;;;;;;;;;5112645;28;20411;-59
2022/11/11 02:01:43;;;;;;;6.47;3.55;;;;;;;;;;5111931;28;20023;-60
2022/11/11 02:06:57;;;;;;;8.32;3.38;;;;;;;;;;5112463;28;20502;-60
2022/11/11 02:09:24;;;;;;;4.32;3.10;;;;;;;;;;5112632;28;20027;-61
2022/11/11 02:14:42;;;;;;;7.35;3.13;;;;;;;;;;5112568;28;20019;-60
2022/11/11 02:17:10;;;;;;;6.78;3.60;;;;;;;;;;5112281;28;20038;-60
2022/11/11 02:19:39;;;;;;;6.18;3.60;;;;;;;;;;5111878;28;20020;-61
2022/11/11 02:22:07;;;;;;;6.07;3.40;;;;;;;;;;5112736;28;20024;-61
2022/11/11 02:24:34;;;;;;;7.72;4.78;;;;;;;;;;5112380;28;20024;-61
2022/11/11 02:27:01;;;;;;;7.45;4.43;;;;;;;;;;5112263;28;20050;-61
2022/11/11 02:29:28;;;;;;;7.38;3.67;;;;;;;;;;5112200;28;20395;-61
2022/11/11 02:31:54;;;;;;;13.90;7.10;;;;;;;;;;5112187;28;20504;-61
2022/11/11 02:34:27;;;;;;;13.70;8.05;;;;;;;;;;5111930;28;20473;-61
2022/11/11 02:36:54;;;;;;;11.43;5.95;;;;;;;;;;5111969;28;20400;-61
2022/11/11 02:39:20;;;;;;;9.60;5.25;;;;;;;;;;5112204;28;20016;-61
2022/11/11 02:41:58;;;;;;;5.55;3.42;;;;;;;;;;5112122;28;20023;-61
2022/11/11 02:44:25;;;;;;;6.80;2.92;;;;;;;;;;5109109;28;20020;-61
2022/11/11 02:46:52;;;;;;;6.82;3.45;;;;;;;;;;5096942;28;20061;-61
2022/11/11 02:49:18;;;;;;;4.90;2.88;;;;;;;;;;5111828;28;20407;-61
2022/11/11 02:51:46;;;;;;;6.07;3.58;;;;;;;;;;5112092;28;20035;-61
2022/11/11 02:54:13;;;;;;;7.00;3.30;;;;;;;;;;5112136;28;20016;-61
2022/11/11 02:59:24;;;;;;;3.97;2.70;;;;;;;;;;5112219;28;20020;-61
2022/11/11 03:01:50;;;;;;;4.45;2.60;;;;;;;;;;5112065;28;20020;-61
2022/11/11 03:04:17;;;;;;;8.18;2.92;;;;;;;;;;5111665;28;20045;-61
2022/11/11 03:06:43;;;;;;;4.75;2.47;;;;;;;;;;5111979;28;20031;-61
2022/11/11 03:09:09;;;;;;;7.32;2.60;;;;;;;;;;5111825;28;20031;-61
2022/11/11 03:11:37;;;;;;;3.60;2.42;;;;;;;;;;5111706;28;20032;-61
2022/11/11 03:14:03;;;;;;;4.55;2.70;;;;;;;;;;5113248;28;20030;-60
2022/11/11 03:19:15;;;;;;;7.97;3.45;;;;;;;;;;5115808;28;20035;-59
2022/11/11 03:21:41;;;;;;;7.70;3.72;;;;;;;;;;5115451;28;20023;-60
2022/11/11 03:24:07;;;;;;;9.85;4.07;;;;;;;;;;5115785;28;20034;-61
2022/11/11 03:26:34;;;;;;;7.35;4.60;;;;;;;;;;5115380;28;20035;-61
2022/11/11 03:29:00;;;;;;;8.77;4.75;;;;;;;;;;5115264;28;20026;-61
2022/11/11 03:31:26;;;;;;;9.52;5.25;;;;;;;;;;5114888;28;20051;-61
2022/11/11 03:33:53;;;;;;;7.22;5.07;;;;;;;;;;5115314;28;20031;-61
2022/11/11 03:36:19;;;;;;;6.78;4.32;;;;;;;;;;5115199;28;20048;-61
2022/11/11 03:38:45;;;;;;;10.00;4.90;;;;;;;;;;5115232;28;20022;-60
2022/11/11 03:41:12;;;;;;;7.07;4.30;;;;;;;;;;5115026;28;20024;-61
2022/11/11 03:43:39;;;;;;;7.85;4.10;;;;;;;;;;5114971;28;20020;-61
2022/11/11 03:46:05;;;;;;;7.18;4.72;;;;;;;;;;5097362;28;20538;-60
2022/11/11 03:48:32;;;;;;;8.25;4.40;;;;;;;;;;5112209;28;20076;-60
2022/11/11 03:50:59;;;;;;;6.45;3.58;;;;;;;;;;5114935;28;20027;-60
2022/11/11 03:53:25;;;;;;;7.50;3.80;;;;;;;;;;5114814;28;20034;-60
2022/11/11 03:55:52;;;;;;;8.55;3.80;;;;;;;;;;5114784;28;20020;-61
2022/11/11 03:58:18;;;;;;;8.05;3.47;;;;;;;;;;5114907;28;20034;-61
2022/11/11 04:00:45;;;;;;;6.10;3.28;;;;;;;;;;5114684;28;20030;-61
2022/11/11 04:11:40;;;;;;;8.00;4.15;;;;;;;;;;5071676;28;20416;-61
2022/11/11 04:16:53;;;;;;;6.38;4.03;;;;;;;;;;5071159;28;20447;-61
2022/11/11 04:22:04;;;;;;;9.00;3.88;;;;;;;;;;5071481;28;20027;-61
2022/11/11 04:27:17;;;;;;;7.68;3.60;;;;;;;;;;5071354;28;20036;-61
2022/11/11 04:29:45;;;;;;;7.10;3.97;;;;;;;;;;5070854;28;20029;-61
2022/11/11 04:35:12;;;;;;;5.00;3.30;;;;;;;;;;5031125;28;20533;-61
2022/11/11 04:37:45;;;;;;;4.78;3.17;;;;;;;;;;5014746;28;20038;-61
2022/11/11 04:42:57;;;;;;;5.43;3.00;;;;;;;;;;5031450;28;20034;-61
2022/11/11 04:45:27;;;;;;;8.40;3.70;;;;;;;;;;5037829;28;20047;-61
2022/11/11 04:47:57;;;;;;;11.82;4.90;;;;;;;;;;5064686;28;20089;-61
2022/11/11 04:50:24;;;;;;;8.30;4.27;;;;;;;;;;5070961;28;20040;-61
2022/11/11 04:52:51;;;;;;;9.10;5.25;;;;;;;;;;5070851;28;20635;-61
2022/11/11 04:58:02;;;;;;;10.57;5.50;;;;;;;;;;5070907;28;20043;-61
2022/11/11 05:00:29;;;;;;;9.45;5.10;;;;;;;;;;5070341;28;20528;-60
2022/11/11 05:11:21;;;;;;;6.97;4.72;;;;;;;;;;5101625;28;20415;-61
2022/11/11 05:22:08;;;;;;;9.30;4.97;;;;;;;;;;5113207;28;20033;-61
2022/11/11 05:27:20;;;;;;;7.55;4.43;;;;;;;;;;5112834;28;20053;-60
2022/11/11 05:29:47;;;;;;;9.52;4.80;;;;;;;;;;5112758;28;20036;-61
2022/11/11 05:32:20;;;;;;;9.60;4.65;;;;;;;;;;5112992;28;20031;-61
2022/11/11 05:34:46;;;;;;;8.13;4.60;;;;;;;;;;5113053;28;20020;-61
2022/11/11 05:37:13;;;;;;;7.55;4.93;;;;;;;;;;5112144;28;20056;-61
2022/11/11 05:39:39;;;;;;;9.05;5.03;;;;;;;;;;5112693;28;20024;-61
2022/11/11 05:42:06;;;;;;;11.52;4.55;;;;;;;;;;5111378;28;20420;-61
2022/11/11 05:44:32;;;;;;;7.43;4.38;;;;;;;;;;5108669;28;20020;-61
2022/11/11 05:46:58;;;;;;;7.10;4.50;;;;;;;;;;5098305;28;20408;-61
2022/11/11 05:49:25;;;;;;;8.10;4.70;;;;;;;;;;5113197;28;20031;-61
2022/11/11 05:51:52;;;;;;;8.38;4.90;;;;;;;;;;5112450;28;20556;-61
2022/11/11 05:54:18;;;;;;;10.68;4.78;;;;;;;;;;5112757;28;20471;-61
2022/11/11 05:56:45;;;;;;;10.35;5.20;;;;;;;;;;5112511;28;20023;-61
2022/11/11 05:59:11;;;;;;;5.93;4.57;;;;;;;;;;5112594;28;20030;-61
2022/11/11 06:01:37;;;;;;;7.28;4.82;;;;;;;;;;5112763;28;20054;-61
2022/11/11 06:04:04;;;;;;;7.25;4.93;;;;;;;;;;5112820;28;20060;-61
2022/11/11 06:06:31;;;;;;;7.00;4.82;;;;;;;;;;5112618;28;20047;-61
2022/11/11 06:08:58;;;;;;;6.88;4.45;;;;;;;;;;5112752;28;20028;-61
2022/11/11 06:11:24;;;;;;;7.30;4.50;;;;;;;;;;5112219;28;20039;-62
2022/11/11 06:13:50;;;;;;;10.23;4.68;;;;;;;;;;5112727;28;20030;-61
2022/11/11 06:16:17;;;;;;;9.65;4.65;;;;;;;;;;5110865;28;20020;-61
2022/11/11 06:18:43;;;;;;;11.10;4.95;;;;;;;;;;5112433;28;20518;-61
2022/11/11 06:21:10;;;;;;;7.95;4.25;;;;;;;;;;5112235;28;20020;-61
2022/11/11 06:23:36;;;;;;;8.38;4.55;;;;;;;;;;5112312;28;20030;-61
2022/11/11 06:26:11;;;;;;;9.50;4.38;;;;;;;;;;5112453;28;20020;-61
2022/11/11 06:28:38;;;;;;;10.00;4.95;;;;;;;;;;5112678;28;20487;-61
2022/11/11 06:31:06;;;;;;;8.13;4.93;;;;;;;;;;5112349;28;20391;-61
2022/11/11 06:33:34;;;;;;;13.70;5.75;;;;;;;;;;5112600;28;20015;-61
2022/11/11 06:36:00;;;;;;;9.48;5.55;;;;;;;;;;5112070;28;20434;-61
2022/11/11 06:38:27;;;;;;;11.75;5.82;;;;;;;;;;5112105;28;20035;-61
2022/11/11 06:40:53;;;;;;;13.27;5.95;;;;;;;;;;5111817;28;20026;-61
2022/11/11 06:43:19;;;;;;;10.75;5.45;;;;;;;;;;5110946;28;20027;-61
2022/11/11 06:45:49;;;;;;;10.15;5.93;;;;;;;;;;5097785;28;20030;-61
2022/11/11 06:48:16;;;;;;;10.15;5.80;;;;;;;;;;5110116;28;20038;-61
2022/11/11 06:50:42;;;;;;;10.98;5.57;;;;;;;;;;5114958;28;20392;-61
2022/11/11 06:53:12;;;;;;;14.80;6.20;;;;;;;;;;5116181;28;20032;-61
2022/11/11 06:55:39;;;;;;;14.50;7.53;;;;;;;;;;5115682;28;20391;-61
2022/11/11 06:58:15;;;;;;;13.27;7.40;;;;;;;;;;5115953;28;20030;-61
2022/11/11 07:00:41;;;;;;;14.45;7.10;;;;;;;;;;5115960;28;20022;-61
2022/11/11 07:03:09;;;;;;;17.67;9.15;;;;;;;;;;5115769;28;20019;-61
2022/11/11 07:05:35;;;;;;;18.38;7.85;;;;;;;;;;5115802;28;20041;-61
2022/11/11 07:08:03;;;;;;;17.33;7.85;;;;;;;;;;5115809;28;20361;-61
2022/11/11 07:10:29;;;;;;;12.25;6.70;;;;;;;;;;5114117;28;20031;-61
2022/11/11 07:12:56;;;;;;;9.90;4.93;;;;;;;;;;5115957;28;20025;-61
2022/11/11 07:15:22;;;;;;;10.50;5.32;;;;;;;;;;5115800;28;20418;-61
2022/11/11 07:17:48;;;;;;;11.02;5.43;;;;;;;;;;5115522;28;20031;-61
2022/11/11 07:20:15;;;;;;;10.82;5.07;;;;;;;;;;5115764;28;20022;-61
2022/11/11 07:22:41;;;;;;;9.95;4.40;;;;;;;;;;5116034;28;20028;-61
2022/11/11 07:25:07;;;;;;;7.57;3.92;;;;;;;;;;5116149;28;20016;-61
2022/11/11 07:27:37;;;;;;;6.65;3.95;;;;;;;;;;5115378;28;20032;-61
2022/11/11 07:30:04;;;;;;;10.75;4.00;;;;;;;;;;5115319;28;20049;-61
2022/11/11 07:32:31;;;;;;;6.43;3.28;;;;;;;;;;5115398;28;20036;-61
2022/11/11 07:34:57;;;;;;;5.75;3.20;;;;;;;;;;5115142;28;20024;-61
2022/11/11 07:37:24;;;;;;;7.80;3.22;;;;;;;;;;5115422;28;20050;-61
2022/11/11 07:39:50;;;;;;;7.30;3.42;;;;;;;;;;5114776;28;20023;-61
2022/11/11 07:42:17;;;;;;;7.88;3.10;;;;;;;;;;5114911;28;20092;-61
2022/11/11 07:44:44;;;;;;;5.82;2.97;;;;;;;;;;5109283;28;20020;-61
2022/11/11 07:47:10;;;;;;;8.80;3.03;;;;;;;;;;5102213;28;20030;-61
2022/11/11 07:49:36;;;;;;;5.82;2.58;;;;;;;;;;5115203;28;20027;-61
2022/11/11 07:52:03;;;;;;;9.38;3.45;;;;;;;;;;5114896;28;20057;-61
2022/11/11 07:54:30;;;;;;;6.53;3.60;;;;;;;;;;5114400;28;20418;-61
2022/11/11 07:56:56;;;;;;;9.10;3.40;;;;;;;;;;5115113;28;20030;-61
2022/11/11 07:59:22;;;;;;;6.53;2.80;;;;;;;;;;5114194;28;20077;-61
2022/11/11 08:01:49;;;;;;;8.20;2.95;;;;;;;;;;5114634;28;20384;-62
2022/11/11 08:04:15;;;;;;;7.07;4.35;;;;;;;;;;5114864;28;20460;-61
2022/11/11 08:06:41;;;;;;;17.75;7.47;;;;;;;;;;5115140;28;20019;-61
2022/11/11 08:09:08;;;;;;;10.35;4.00;;;;;;;;;;5114444;28;20498;-61
2022/11/11 08:14:19;;;;;;;5.90;3.50;;;;;;;;;;5114344;28;20476;-62
2022/11/11 08:16:45;;;;;;;8.63;3.88;;;;;;;;;;5114890;28;20039;-61
2022/11/11 08:19:12;;;;;;;9.32;3.88;;;;;;;;;;5114368;28;20034;-61
2022/11/11 08:21:38;;;;;;;7.25;4.15;;;;;;;;;;5114061;28;20035;-61
2022/11/11 08:24:04;;;;;;;5.65;3.20;;;;;;;;;;5114269;28;20023;-61
2022/11/11 08:26:31;;;;;;;7.53;2.85;;;;;;;;;;5114397;28;20499;-61
2022/11/11 08:28:57;;;;;;;4.95;3.13;;;;;;;;;;5114339;28;20026;-61
2022/11/11 08:31:23;;;;;;;7.10;3.50;;;;;;;;;;5114255;28;20032;-61
2022/11/11 08:33:50;;;;;;;9.25;4.22;;;;;;;;;;5114582;28;20012;-61
2022/11/11 08:36:16;;;;;;;7.40;3.55;;;;;;;;;;5113505;28;20530;-61
2022/11/11 08:38:42;;;;;;;6.07;3.40;;;;;;;;;;5114118;28;20023;-62
2022/11/11 08:41:10;;;;;;;9.27;3.92;;;;;;;;;;5113836;28;20030;-61
2022/11/11 08:43:36;;;;;;;8.27;4.10;;;;;;;;;;5113690;28;20062;-61
2022/11/11 08:46:03;;;;;;;9.90;4.03;;;;;;;;;;5096838;28;20020;-61
2022/11/11 08:48:31;;;;;;;9.68;4.38;;;;;;;;;;5112176;28;20028;-61
2022/11/11 08:50:57;;;;;;;8.02;4.68;;;;;;;;;;5113230;28;20038;-61
2022/11/11 08:53:23;;;;;;;7.68;4.60;;;;;;;;;;5113758;28;20031;-62
2022/11/11 08:55:50;;;;;;;7.22;4.20;;;;;;;;;;5113875;28;20027;-61
2022/11/11 08:58:16;;;;;;;8.35;3.83;;;;;;;;;;5113628;28;20024;-62
2022/11/11 09:00:42;;;;;;;6.32;2.80;;;;;;;;;;5113738;28;20028;-62
2022/11/11 09:03:12;;;;;;;7.88;3.58;;;;;;;;;;5113602;28;20032;-62
2022/11/11 09:05:39;;;;;;;9.00;3.67;;;;;;;;;;5113356;28;20027;-62
2022/11/11 09:08:06;;;;;;;6.57;2.88;;;;;;;;;;5113517;28;20068;-61
2022/11/11 09:10:36;;;;;;;5.75;2.50;;;;;;;;;;5113368;28;20032;-61
2022/11/11 09:13:03;;;;;;;7.32;2.50;;;;;;;;;;5113122;28;20484;-62
2022/11/11 09:15:29;;;;;;;7.28;2.63;;;;;;;;;;5113073;28;20020;-61
2022/11/11 09:17:56;;;;;;;8.98;2.50;;;;;;;;;;5113133;28;20027;-61
2022/11/11 09:20:23;;;;;;;6.38;2.42;;;;;;;;;;5112790;28;20028;-61
2022/11/11 09:22:50;;;;;;;8.25;2.15;;;;;;;;;;5113521;28;20061;-62
2022/11/11 09:25:17;;;;;;;9.35;2.40;;;;;;;;;;5112994;28;20022;-62
2022/11/11 09:27:43;;;;;;;5.65;2.00;;;;;;;;;;5112856;28;20373;-61
2022/11/11 09:30:10;;;;;;;8.57;2.22;;;;;;;;;;5113070;28;20028;-61
2022/11/11 09:32:37;;;;;;;4.63;2.13;;;;;;;;;;5112840;28;20035;-62
2022/11/11 09:35:04;;;;;;;3.15;1.77;;;;;;;;;;5112433;28;20370;-61
2022/11/11 09:37:30;;;;;;;4.50;1.90;;;;;;;;;;5112763;28;20051;-61
2022/11/11 09:39:57;;;;;;;5.60;2.10;;;;;;;;;;5112631;28;20051;-62
2022/11/11 09:42:37;;;;;;;6.60;1.95;;;;;;;;;;5112755;28;20034;-62
2022/11/11 09:45:03;;;;;;;6.03;2.03;;;;;;;;;;5104098;28;20488;-61
2022/11/11 09:47:47;;;;;;;8.50;2.20;;;;;;;;;;5102921;28;20373;-62
2022/11/11 09:50:24;;;;;;;6.50;1.95;;;;;;;;;;5112581;28;20034;-61
2022/11/11 09:52:53;;;;;;;5.20;1.85;;;;;;;;;;5112612;28;20034;-61
2022/11/11 09:55:20;;;;;;;7.70;1.98;;;;;;;;;;5112682;28;20030;-61
2022/11/11 09:57:46;;;;;;;9.85;1.70;;;;;;;;;;5112629;28;20449;-62
2022/11/11 10:00:17;;;;;;;4.68;1.60;;;;;;;;;;5112661;28;20080;-62
2022/11/11 10:02:47;;;;;;;4.65;1.58;;;;;;;;;;5112756;28;20034;-65
2022/11/11 10:05:13;;;;;;;5.50;1.83;;;;;;;;;;5112513;28;20020;-62
2022/11/11 10:07:43;;;;;;;5.43;1.73;;;;;;;;;;5112348;28;20023;-62
2022/11/11 10:10:12;;;;;;;3.65;1.70;;;;;;;;;;5112452;28;20487;-62
2022/11/11 10:12:41;;;;;;;8.77;1.70;;;;;;;;;;5112354;28;20500;-62
2022/11/11 10:15:15;;;;;;;11.63;1.75;;;;;;;;;;5112776;28;20030;-62
2022/11/11 10:17:54;;;;;;;7.07;1.90;;;;;;;;;;5112367;28;20472;-62
2022/11/11 10:20:20;;;;;;;5.60;1.73;;;;;;;;;;5112668;28;20068;-62
2022/11/11 10:22:50;;;;;;;5.63;1.80;;;;;;;;;;5110808;28;20028;-62
2022/11/11 10:25:19;;;;;;;4.80;1.92;;;;;;;;;;5116299;28;20015;-62
2022/11/11 10:27:47;;;;;;;5.70;1.63;;;;;;;;;;5116765;28;20026;-62
2022/11/11 10:30:16;;;;;;;4.70;1.70;;;;;;;;;;5116365;28;20427;-62
2022/11/11 10:32:44;;;;;;;5.28;1.67;;;;;;;;;;5116264;28;20031;-62
2022/11/11 10:35:18;;;;;;;5.65;1.88;;;;;;;;;;5116410;28;20022;-62
2022/11/11 10:37:45;;;;;;;3.88;1.80;;;;;;;;;;5116197;28;20047;-62
2022/11/11 10:40:20;;;;;;;6.28;1.88;;;;;;;;;;5115192;28;20032;-62
2022/11/11 10:42:47;;;;;;;3.22;1.50;;;;;;;;;;5116249;28;20023;-62
2022/11/11 10:45:16;;;;;;;5.32;1.67;;;;;;;;;;5116548;28;20015;-62
2022/11/11 10:47:45;;;;;;;8.35;1.75;;;;;;;;;;5114449;28;20438;-62
2022/11/11 10:50:25;;;;;;;6.38;1.75;;;;;;;;;;5116404;28;20022;-62
2022/11/11 10:53:10;;;;;;;5.70;1.92;;;;;;;;;;5115842;28;20036;-62
2022/11/11 10:55:50;;;;;;;5.15;1.85;;;;;;;;;;5116018;28;20087;-62
2022/11/11 10:58:37;;;;;;;4.60;1.83;;;;;;;;;;5115823;28;20016;-62
2022/11/11 11:01:05;;;;;;;6.45;1.67;;;;;;;;;;5115550;28;20381;-61
2022/11/11 11:03:34;;;;;;;4.30;1.60;;;;;;;;;;5115776;28;20020;-60
2022/11/11 11:06:10;;;;;;;4.43;1.70;;;;;;;;;;5116030;28;20116;-62
2022/11/11 11:08:44;;;;;;;5.85;1.65;;;;;;;;;;5115585;28;20026;-62
2022/11/11 11:11:16;;;;;;;6.05;1.85;;;;;;;;;;5115639;28;20033;-62
2022/11/11 11:13:51;;;;;;;7.03;1.70;;;;;;;;;;5115661;28;20031;-62
2022/11/11 11:16:20;;;;;;;6.25;1.70;;;;;;;;;;5115448;28;20034;-62
2022/11/11 11:19:05;;;;;;;5.95;2.05;;;;;;;;;;5115754;28;20027;-62
2022/11/11 11:22:07;;;;;;;7.43;1.73;;;;;;;;;;5115326;28;20024;-62
2022/11/11 11:24:36;;;;;;;6.97;1.67;;;;;;;;;;5032789;28;20029;-61
2022/11/11 11:27:03;;;;;;;4.82;1.52;;;;;;;;;;5032581;28;20037;-61
2022/11/11 11:29:35;;;;;;;9.80;1.80;;;;;;;;;;5032761;28;20060;-61
2022/11/11 11:32:18;;;;;;;9.20;2.08;;;;;;;;;;5032044;28;20037;-62
2022/11/11 11:34:50;;;;;;;8.10;1.95;;;;;;;;;;5014858;28;20409;-61
2022/11/11 11:37:18;;;;;;;5.65;1.83;;;;;;;;;;5032478;28;20504;-62
2022/11/11 11:39:44;;;;;;;8.60;2.28;;;;;;;;;;5032663;28;20041;-61
2022/11/11 11:42:29;;;;;;;6.80;1.88;;;;;;;;;;5032285;28;20032;-62
2022/11/11 11:44:55;;;;;;;3.22;1.60;;;;;;;;;;5031858;28;20037;-62
2022/11/11 11:47:40;;;;;;;6.70;1.90;;;;;;;;;;5032364;28;20567;-62
2022/11/11 11:50:26;;;;;;;7.35;1.77;;;;;;;;;;5032286;28;20040;-62
2022/11/11 11:52:52;;;;;;;12.70;2.22;;;;;;;;;;5032511;28;20042;-62
2022/11/11 11:55:21;;;;;;;5.03;1.80;;;;;;;;;;5032429;28;20038;-62
2022/11/11 11:57:56;;;;;;;3.65;1.42;;;;;;;;;;5044678;28;20032;-62
2022/11/11 12:00:24;;;;;;;8.80;2.20;;;;;;;;;;5093958;28;20027;-62
2022/11/11 12:03:09;;;;;;;6.28;2.47;;;;;;;;;;5094472;28;20023;-62
2022/11/11 12:05:39;;;;;;;8.15;1.80;;;;;;;;;;5094140;28;20497;-62
2022/11/11 12:08:21;;;;;;;5.68;1.52;;;;;;;;;;5094260;28;20414;-62
2022/11/11 12:11:02;;;;;;;8.77;2.20;;;;;;;;;;5093991;28;20032;-62
2022/11/11 12:13:40;;;;;;;7.05;1.95;;;;;;;;;;5093692;28;20035;-62
2022/11/11 12:16:07;;;;;;;8.00;2.05;;;;;;;;;;5094028;28;20028;-62
2022/11/11 12:18:48;;;;;;;4.35;1.67;;;;;;;;;;5094431;28;20020;-62
2022/11/11 12:21:15;;;;;;;7.20;1.70;;;;;;;;;;5093895;28;20404;-62
2022/11/11 12:23:48;;;;;;;5.10;1.65;;;;;;;;;;5094113;28;20019;-62
2022/11/11 12:26:18;;;;;;;7.28;1.60;;;;;;;;;;5093756;28;20298;-61
2022/11/11 12:29:09;;;;;;;11.07;2.20;;;;;;;;;;5093582;28;20024;-62
2022/11/11 12:31:36;;;;;;;3.97;1.70;;;;;;;;;;5093630;28;20408;-62
2022/11/11 12:34:20;;;;;;;6.60;2.03;;;;;;;;;;5093767;28;20039;-61
2022/11/11 12:36:47;;;;;;;5.15;1.50;;;;;;;;;;5093603;28;20064;-62
2022/11/11 12:39:25;;;;;;;3.30;1.35;;;;;;;;;;5093625;28;20032;-61
2022/11/11 12:41:52;;;;;;;5.32;1.80;;;;;;;;;;5093616;28;20075;-62
2022/11/11 12:44:21;;;;;;;8.18;1.85;;;;;;;;;;5094995;28;20028;-62
2022/11/11 12:46:53;;;;;;;4.35;1.63;;;;;;;;;;5113469;28;20031;-62
2022/11/11 12:49:20;;;;;;;7.93;1.80;;;;;;;;;;5113920;28;20383;-62
2022/11/11 12:52:04;;;;;;;6.28;1.70;;;;;;;;;;5113578;28;20039;-61
2022/11/11 12:54:49;;;;;;;5.07;1.80;;;;;;;;;;5113599;28;20489;-62
2022/11/11 12:57:16;;;;;;;7.03;2.08;;;;;;;;;;5113279;28;20388;-62
2022/11/11 13:00:01;;;;;;;9.63;1.60;;;;;;;;;;5113566;28;20016;-62
2022/11/11 13:02:30;;;;;;;4.40;1.50;;;;;;;;;;5112185;28;20027;-62
2022/11/11 13:05:13;;;;;;;6.60;1.55;;;;;;;;;;5113389;28;20020;-62
2022/11/11 13:07:42;;;;;;;5.30;1.90;;;;;;;;;;5113357;28;20032;-62
2022/11/11 13:10:12;;;;;;;3.50;1.77;;;;;;;;;;5113367;28;20027;-62
2022/11/11 13:12:50;;;;;;;9.82;2.10;;;;;;;;;;5113023;28;20038;-62
2022/11/11 13:15:19;;;;;;;4.35;1.65;;;;;;;;;;5113646;28;20028;-62
2022/11/11 13:17:45;;;;;;;4.53;1.60;;;;;;;;;;5113447;28;20027;-62
2022/11/11 13:20:17;;;;;;;6.15;1.65;;;;;;;;;;5112004;28;20024;-61
2022/11/11 13:22:44;;;;;;;5.78;1.42;;;;;;;;;;5113206;28;20026;-62
2022/11/11 13:25:14;;;;;;;8.48;1.80;;;;;;;;;;5113064;28;20020;-62
2022/11/11 13:27:50;;;;;;;3.13;1.33;;;;;;;;;;5112941;28;20031;-62
2022/11/11 13:30:25;;;;;;;6.70;1.70;;;;;;;;;;5113029;28;20022;-62
2022/11/11 13:33:12;;;;;;;8.40;1.60;;;;;;;;;;5112771;28;20035;-62
2022/11/11 13:35:42;;;;;;;4.18;1.58;;;;;;;;;;5112698;28;20027;-62
2022/11/11 13:38:12;;;;;;;4.15;1.70;;;;;;;;;;5111891;28;20035;-62
2022/11/11 13:40:40;;;;;;;4.07;1.52;;;;;;;;;;5112481;28;20144;-62
2022/11/11 13:43:18;;;;;;;8.50;2.10;;;;;;;;;;5113121;28;20312;-62
2022/11/11 13:45:50;;;;;;;5.10;1.98;;;;;;;;;;5098760;28;20027;-62
2022/11/11 13:48:31;;;;;;;6.07;1.60;;;;;;;;;;5109558;28;20079;-62
2022/11/11 13:51:30;;;;;;;3.78;1.55;;;;;;;;;;5112632;28;20031;-62
2022/11/11 13:53:57;;;;;;;5.25;1.88;;;;;;;;;;5029936;28;20094;-62
2022/11/11 13:56:36;;;;;;;5.18;1.70;;;;;;;;;;5029603;28;20041;-62
2022/11/11 13:59:02;;;;;;;5.57;1.67;;;;;;;;;;5029207;28;20593;-62
2022/11/11 14:01:36;;;;;;;7.35;1.77;;;;;;;;;;5030027;28;20029;-62
2022/11/11 14:04:07;;;;;;;6.45;1.50;;;;;;;;;;5029792;28;20033;-61
2022/11/11 14:06:33;;;;;;;;;;;;;;;;;;5030487;28;20036;-62
2022/11/11 14:09:00;;;;;;;7.38;1.70;;;;;;;;;;5029989;28;19909;-62
2022/11/11 14:11:26;;;;;;;7.63;1.60;;;;;;;;;;5029359;28;20033;-62
2022/11/11 14:13:53;;;;;;;4.60;1.67;;;;;;;;;;5029820;28;20036;-62
2022/11/11 14:16:35;;;;;;;4.78;1.70;;;;;;;;;;5029788;28;20044;-62
2022/11/11 14:19:16;;;;;;;4.75;1.90;;;;;;;;;;5029671;28;20426;-62
2022/11/11 14:21:45;;;;;;;6.38;1.60;;;;;;;;;;5013276;28;20093;-62
2022/11/11 14:24:22;;;;;;;6.07;1.58;;;;;;;;;;5029243;28;20414;-62
2022/11/11 14:27:11;;;;;;;4.65;1.70;;;;;;;;;;5029784;28;20036;-62
2022/11/11 14:29:46;;;;;;;6.18;1.52;;;;;;;;;;5066539;28;20035;-62
2022/11/11 14:32:31;;;;;;;5.78;1.50;;;;;;;;;;5112118;28;20488;-62
2022/11/11 14:35:00;;;;;;;4.43;1.80;;;;;;;;;;5112191;28;20407;-62
2022/11/11 14:37:36;;;;;;;4.38;1.27;;;;;;;;;;5112262;28;20039;-62
2022/11/11 14:40:02;;;;;;;4.22;1.67;;;;;;;;;;5111983;28;20026;-62
2022/11/11 14:42:35;;;;;;;5.07;1.67;;;;;;;;;;5112286;28;20019;-62
2022/11/11 14:45:02;;;;;;;5.60;1.65;;;;;;;;;;5103931;28;20023;-62
2022/11/11 14:47:34;;;;;;;5.65;1.70;;;;;;;;;;5102016;28;20028;-62
2022/11/11 14:50:01;;;;;;;4.57;1.60;;;;;;;;;;5110966;28;20032;-62
2022/11/11 14:52:30;;;;;;;5.53;1.55;;;;;;;;;;5111996;28;20035;-62
2022/11/11 14:55:02;;;;;;;3.67;1.70;;;;;;;;;;5111839;28;20496;-62
2022/11/11 14:57:35;;;;;;;3.03;1.30;;;;;;;;;;5112167;28;20500;-62
2022/11/11 15:00:04;;;;;;;3.83;1.65;;;;;;;;;;5112473;28;20076;-62
2022/11/11 15:02:34;;;;;;;4.57;1.80;;;;;;;;;;5111986;28;20385;-62
2022/11/11 15:05:10;;;;;;;4.18;1.70;;;;;;;;;;5112254;28;20024;-62
2022/11/11 15:07:36;;;;;;;4.15;1.48;;;;;;;;;;5111847;28;20016;-62
2022/11/11 15:10:09;;;;;;;5.00;1.92;;;;;;;;;;5114964;28;20015;-62
2022/11/11 15:13:11;;;;;;;5.63;1.92;;;;;;;;;;5115788;28;20496;-61
2022/11/11 15:15:47;;;;;;;5.22;1.33;;;;;;;;;;5032703;28;20036;-62
2022/11/11 15:18:25;;;;;;;7.88;2.05;;;;;;;;;;5032803;28;20037;-62
2022/11/11 15:20:52;;;;;;;7.93;2.00;;;;;;;;;;5033039;28;20025;-62
2022/11/11 15:23:27;;;;;;;4.00;2.03;;;;;;;;;;5032531;28;20033;-62
2022/11/11 15:26:11;;;;;;;3.22;1.63;;;;;;;;;;5032985;28;20033;-62
2022/11/11 15:28:56;;;;;;;6.53;2.05;;;;;;;;;;5032706;28;20032;-62
2022/11/11 15:31:32;;;;;;;8.93;1.73;;;;;;;;;;5032580;28;20199;-62
2022/11/11 15:34:18;;;;;;;6.78;1.90;;;;;;;;;;5032460;28;20548;-61
2022/11/11 15:36:47;;;;;;;3.75;1.40;;;;;;;;;;5032282;28;20037;-61
2022/11/11 15:39:15;;;;;;;9.32;1.80;;;;;;;;;;5032419;28;20045;-62
2022/11/11 15:41:43;;;;;;;8.07;2.08;;;;;;;;;;5032511;28;20030;-62
2022/11/11 15:44:15;;;;;;;4.75;1.73;;;;;;;;;;5032167;28;20421;-62
2022/11/11 15:46:42;;;;;;;4.47;1.63;;;;;;;;;;5032419;28;20059;-62
2022/11/11 15:49:12;;;;;;;5.53;1.50;;;;;;;;;;5052308;28;20040;-62
2022/11/11 15:51:38;;;;;;;5.63;2.03;;;;;;;;;;5094474;28;20028;-61
2022/11/11 15:54:17;;;;;;;3.00;1.42;;;;;;;;;;5094562;28;20031;-62
2022/11/11 15:56:43;;;;;;;6.88;1.80;;;;;;;;;;5093463;28;20366;-62
2022/11/11 15:59:23;;;;;;;5.07;1.90;;;;;;;;;;5093236;28;20032;-61
2022/11/11 16:01:53;;;;;;;4.03;1.80;;;;;;;;;;5094494;28;20046;-62
2022/11/11 16:04:21;;;;;;;4.65;1.75;;;;;;;;;;5092975;28;20020;-61
2022/11/11 16:06:48;;;;;;;5.07;2.05;;;;;;;;;;5094494;28;20077;-61
2022/11/11 16:09:16;;;;;;;3.53;1.40;;;;;;;;;;5094569;28;20032;-61